Time;durP1;ratioP1;P1;durP2;ratioP2;P2;SDS_P1;SDS_P2;PMS_P1;PMS_P2;Temp;Humidity;BMP_temperature;BMP_pressure;BME280_temperature;BME280_humidity;BME280_pressure;Samples;Min_cycle;Max_cycle;Signal;HPM_P1;HPM_P2
2021/10/29 00:00:16;;;;;;;3.97;2.78;;;15.00;99.90;;;;;;5048167;28;20276;-68
2021/10/29 00:02:44;;;;;;;4.50;2.42;;;14.90;99.90;;;;;;5049851;28;20226;-69
2021/10/29 00:05:11;;;;;;;3.58;2.45;;;14.80;99.90;;;;;;5050063;28;20214;-69
2021/10/29 00:07:38;;;;;;;2.20;2.00;;;14.90;99.90;;;;;;5050273;28;20211;-68
2021/10/29 00:10:07;;;;;;;3.28;2.47;;;14.90;99.90;;;;;;5050022;28;20215;-70
2021/10/29 00:12:34;;;;;;;2.63;2.25;;;14.90;99.90;;;;;;5048857;28;20211;-69
2021/10/29 00:15:02;;;;;;;2.65;2.30;;;15.00;99.90;;;;;;5042631;28;20207;-71
2021/10/29 00:17:29;;;;;;;4.47;2.78;;;14.80;99.90;;;;;;5045088;28;20206;-68
2021/10/29 00:19:56;;;;;;;6.45;3.03;;;14.70;99.90;;;;;;5048352;28;20674;-68
2021/10/29 00:22:23;;;;;;;4.85;2.38;;;14.60;99.90;;;;;;5033986;28;20254;-69
2021/10/29 00:24:50;;;;;;;4.95;2.92;;;14.80;99.90;;;;;;5044096;28;20625;-70
2021/10/29 00:27:17;;;;;;;6.15;2.45;;;14.70;99.90;;;;;;5039100;28;20350;-69
2021/10/29 00:29:45;;;;;;;3.47;2.88;;;14.60;99.90;;;;;;5044451;28;20210;-69
2021/10/29 00:32:13;;;;;;;3.47;2.85;;;14.60;99.90;;;;;;5041041;28;20206;-68
2021/10/29 00:34:40;;;;;;;6.07;2.80;;;14.70;99.90;;;;;;5049937;28;20210;-70
2021/10/29 00:37:07;;;;;;;3.30;2.97;;;14.70;99.90;;;;;;5046151;28;20248;-70
2021/10/29 00:39:34;;;;;;;4.88;2.60;;;14.60;99.90;;;;;;5042624;28;20200;-69
2021/10/29 00:42:02;;;;;;;3.58;2.90;;;14.50;99.90;;;;;;5046834;28;20730;-70
2021/10/29 00:44:29;;;;;;;6.10;3.03;;;14.50;99.90;;;;;;5043374;28;20298;-68
2021/10/29 00:46:56;;;;;;;7.20;2.88;;;14.60;99.90;;;;;;5051299;28;20207;-68
2021/10/29 00:49:24;;;;;;;5.78;2.83;;;14.50;99.90;;;;;;5051053;28;20573;-68
2021/10/29 00:51:52;;;;;;;4.18;2.50;;;14.40;99.90;;;;;;5044602;28;20203;-69
2021/10/29 00:54:20;;;;;;;4.13;3.08;;;14.30;99.90;;;;;;5049885;28;20725;-69
2021/10/29 00:56:49;;;;;;;4.07;3.33;;;14.30;99.90;;;;;;5040080;28;20211;-72
2021/10/29 00:59:18;;;;;;;3.97;2.55;;;14.20;99.90;;;;;;5046263;28;20221;-70
2021/10/29 01:01:45;;;;;;;5.05;2.35;;;14.40;99.90;;;;;;5049743;28;20237;-70
2021/10/29 01:04:12;;;;;;;5.50;3.00;;;14.40;99.90;;;;;;5048656;28;20227;-68
2021/10/29 01:06:42;;;;;;;3.60;2.92;;;14.40;99.90;;;;;;5049200;28;20211;-68
2021/10/29 01:09:09;;;;;;;3.53;2.90;;;14.40;99.90;;;;;;5052853;28;20202;-68
2021/10/29 01:11:37;;;;;;;3.67;2.45;;;14.30;99.90;;;;;;5044190;28;20637;-68
2021/10/29 01:14:04;;;;;;;5.13;2.85;;;14.30;99.90;;;;;;5049141;28;20259;-68
2021/10/29 01:16:31;;;;;;;3.70;2.08;;;14.20;99.90;;;;;;5045432;28;20207;-68
2021/10/29 01:18:59;;;;;;;5.75;3.28;;;14.30;99.90;;;;;;5052037;28;20214;-70
2021/10/29 01:21:27;;;;;;;4.22;3.25;;;14.30;99.90;;;;;;5049200;28;20203;-68
2021/10/29 01:23:54;;;;;;;5.50;3.00;;;14.20;99.90;;;;;;5045110;28;20293;-69
2021/10/29 01:26:21;;;;;;;5.65;2.83;;;14.30;99.90;;;;;;5051343;28;20207;-71
2021/10/29 01:28:48;;;;;;;4.88;2.50;;;14.40;99.90;;;;;;5053107;28;20256;-72
2021/10/29 01:31:17;;;;;;;5.20;2.63;;;14.30;99.90;;;;;;5050649;28;20736;-76
2021/10/29 01:33:44;;;;;;;5.85;2.70;;;14.40;99.90;;;;;;5050576;28;20233;-71
2021/10/29 01:36:12;;;;;;;4.97;2.90;;;14.30;99.90;;;;;;5040999;28;20254;-73
2021/10/29 01:38:42;;;;;;;3.92;2.85;;;14.40;99.90;;;;;;5053033;28;20238;-71
2021/10/29 01:41:11;;;;;;;3.38;2.88;;;14.30;99.90;;;;;;5046572;28;20203;-71
2021/10/29 01:43:41;;;;;;;6.18;2.40;;;14.40;99.90;;;;;;5052725;28;20356;-69
2021/10/29 01:46:08;;;;;;;2.60;2.38;;;14.40;99.90;;;;;;5043686;28;20210;-69
2021/10/29 01:48:41;;;;;;;6.65;3.63;;;14.30;99.90;;;;;;5040618;28;20273;-69
2021/10/29 01:51:08;;;;;;;6.30;3.63;;;14.30;99.90;;;;;;5051892;28;20199;-70
2021/10/29 01:53:35;;;;;;;6.97;4.10;;;14.30;99.90;;;;;;5052248;28;20202;-70
2021/10/29 01:56:04;;;;;;;5.22;2.80;;;14.30;99.90;;;;;;5048616;28;20207;-70
2021/10/29 01:58:31;;;;;;;11.63;5.03;;;14.30;99.90;;;;;;5050473;28;20210;-70
2021/10/29 02:00:58;;;;;;;4.25;2.83;;;14.30;99.90;;;;;;5050861;28;20206;-71
2021/10/29 02:03:25;;;;;;;4.47;2.90;;;14.10;99.90;;;;;;5047853;28;20226;-70
2021/10/29 02:05:52;;;;;;;3.83;3.40;;;14.00;99.90;;;;;;5052708;28;20620;-69
2021/10/29 02:08:23;;;;;;;4.82;3.33;;;14.00;99.90;;;;;;5051192;28;20264;-69
2021/10/29 02:10:50;;;;;;;5.60;3.55;;;14.00;99.90;;;;;;5040702;28;20578;-70
2021/10/29 02:13:19;;;;;;;4.32;3.17;;;14.00;99.90;;;;;;5035363;28;20215;-69
2021/10/29 02:15:47;;;;;;;7.30;3.25;;;14.00;99.90;;;;;;5045395;28;20268;-70
2021/10/29 02:18:13;;;;;;;5.43;3.22;;;13.80;99.90;;;;;;5051990;28;20770;-72
2021/10/29 02:20:41;;;;;;;6.57;3.20;;;13.90;99.90;;;;;;5046008;28;20203;-70
2021/10/29 02:23:08;;;;;;;5.47;2.72;;;13.80;99.90;;;;;;5051788;28;20239;-69
2021/10/29 02:25:35;;;;;;;7.28;3.03;;;13.80;99.90;;;;;;5038128;28;20204;-71
2021/10/29 02:28:03;;;;;;;4.93;3.92;;;13.80;99.90;;;;;;5049958;28;20207;-68
2021/10/29 02:30:31;;;;;;;6.90;2.78;;;13.80;99.90;;;;;;5050510;28;20203;-69
2021/10/29 02:32:58;;;;;;;3.33;3.03;;;13.70;99.90;;;;;;5038215;28;20211;-70
2021/10/29 02:35:25;;;;;;;4.82;3.30;;;13.70;99.90;;;;;;5045644;28;20203;-74
2021/10/29 02:37:52;;;;;;;3.33;3.00;;;13.60;99.90;;;;;;5050271;28;20261;-71
2021/10/29 02:40:19;;;;;;;5.45;3.03;;;13.70;99.90;;;;;;5039940;28;20558;-72
2021/10/29 02:42:46;;;;;;;4.82;3.03;;;13.60;99.90;;;;;;5051508;28;20688;-70
2021/10/29 02:45:13;;;;;;;4.80;2.70;;;13.60;99.90;;;;;;5049561;28;20269;-72
2021/10/29 02:47:46;;;;;;;6.05;3.78;;;13.70;99.90;;;;;;5051366;28;20207;-69
2021/10/29 02:50:14;;;;;;;4.63;2.70;;;13.70;99.90;;;;;;5046323;28;20308;-72
2021/10/29 02:52:41;;;;;;;5.10;3.45;;;13.70;99.90;;;;;;5043956;28;20670;-69
2021/10/29 02:55:08;;;;;;;5.57;3.38;;;13.70;99.90;;;;;;5044382;28;20627;-70
2021/10/29 02:57:36;;;;;;;3.90;3.17;;;13.60;99.90;;;;;;5049695;28;20203;-69
2021/10/29 03:00:06;;;;;;;3.35;2.75;;;13.60;99.90;;;;;;5046852;28;20225;-69
2021/10/29 03:02:34;;;;;;;4.70;3.78;;;13.50;99.90;;;;;;5043500;28;20199;-69
2021/10/29 03:05:02;;;;;;;3.45;3.00;;;13.40;99.90;;;;;;5043155;28;20804;-72
2021/10/29 03:07:29;;;;;;;4.90;3.17;;;13.50;99.90;;;;;;5043808;28;20258;-71
2021/10/29 03:09:56;;;;;;;4.00;3.45;;;13.50;99.90;;;;;;5039369;28;20261;-70
2021/10/29 03:12:24;;;;;;;7.97;3.17;;;13.40;99.90;;;;;;5036461;28;20732;-71
2021/10/29 03:14:51;;;;;;;6.03;3.60;;;13.30;99.90;;;;;;5042690;28;20213;-70
2021/10/29 03:17:18;;;;;;;4.90;3.08;;;13.30;99.90;;;;;;5046177;28;20682;-70
2021/10/29 03:19:45;;;;;;;4.97;3.05;;;13.30;99.90;;;;;;5047789;28;20269;-70
2021/10/29 03:22:13;;;;;;;4.32;2.85;;;13.30;99.90;;;;;;5045914;28;20211;-70
2021/10/29 03:24:40;;;;;;;5.85;3.55;;;13.40;99.90;;;;;;5049630;28;20230;-71
2021/10/29 03:27:07;;;;;;;5.85;3.45;;;13.30;99.90;;;;;;5047038;28;20641;-71
2021/10/29 03:29:34;;;;;;;4.13;2.70;;;13.30;99.90;;;;;;5037377;28;20210;-70
2021/10/29 03:32:01;;;;;;;4.32;3.20;;;13.40;99.90;;;;;;5045056;28;20248;-70
2021/10/29 03:34:28;;;;;;;5.15;3.33;;;13.60;99.90;;;;;;5042219;28;20281;-70
2021/10/29 03:36:56;;;;;;;7.63;3.25;;;13.60;99.90;;;;;;5044925;28;20294;-69
2021/10/29 03:39:26;;;;;;;5.68;3.17;;;13.60;99.90;;;;;;5046040;28;20698;-70
2021/10/29 03:41:57;;;;;;;5.07;3.35;;;13.60;99.90;;;;;;5051030;28;20207;-70
2021/10/29 03:44:30;;;;;;;3.42;2.92;;;13.70;99.90;;;;;;5050380;28;20709;-73
2021/10/29 03:46:59;;;;;;;6.38;3.40;;;13.70;99.90;;;;;;5050619;28;20289;-71
2021/10/29 03:49:31;;;;;;;5.72;3.03;;;13.70;99.90;;;;;;5049827;28;20206;-70
2021/10/29 03:52:04;;;;;;;4.22;3.00;;;13.80;99.90;;;;;;5049629;28;20277;-73
2021/10/29 03:54:34;;;;;;;6.82;3.25;;;13.90;99.90;;;;;;5050199;28;20203;-69
2021/10/29 03:57:11;;;;;;;7.10;3.75;;;13.90;99.90;;;;;;5050042;28;20211;-69
2021/10/29 03:59:38;;;;;;;5.28;3.58;;;13.80;99.90;;;;;;5050391;28;20222;-71
2021/10/29 04:02:08;;;;;;;6.20;3.30;;;13.80;99.90;;;;;;5049615;28;20207;-70
2021/10/29 04:04:35;;;;;;;4.20;3.40;;;13.70;99.90;;;;;;5050216;28;20230;-70
2021/10/29 04:07:02;;;;;;;4.75;3.42;;;13.60;99.90;;;;;;5049908;28;20207;-69
2021/10/29 04:09:29;;;;;;;6.43;3.08;;;13.70;99.90;;;;;;5050285;28;20206;-71
2021/10/29 04:11:58;;;;;;;5.05;3.40;;;13.60;99.90;;;;;;5050228;28;20206;-70
2021/10/29 04:14:29;;;;;;;6.68;3.88;;;13.50;99.90;;;;;;5050838;28;20228;-70
2021/10/29 04:16:56;;;;;;;5.22;3.03;;;13.60;99.90;;;;;;5053564;28;20210;-73
2021/10/29 04:19:24;;;;;;;5.18;3.40;;;13.50;99.90;;;;;;5040755;28;20207;-71
2021/10/29 04:21:51;;;;;;;6.32;4.03;;;13.60;99.90;;;;;;5054316;28;20249;-70
2021/10/29 04:24:18;;;;;;;6.82;3.22;;;13.50;99.90;;;;;;5053483;28;20226;-71
2021/10/29 04:26:44;;;;;;;5.00;3.63;;;13.40;99.90;;;;;;5052086;28;20735;-69
2021/10/29 04:29:17;;;;;;;7.50;3.42;;;13.50;99.90;;;;;;5053321;28;20253;-70
2021/10/29 04:31:49;;;;;;;4.55;3.42;;;13.60;99.90;;;;;;5054399;28;20236;-74
2021/10/29 04:34:17;;;;;;;5.13;3.00;;;13.50;99.90;;;;;;5053683;28;20276;-71
2021/10/29 04:36:44;;;;;;;6.15;4.07;;;13.60;99.90;;;;;;5054190;28;20284;-70
2021/10/29 04:39:13;;;;;;;7.25;4.25;;;13.40;99.90;;;;;;5053188;28;20211;-71
2021/10/29 04:41:40;;;;;;;6.35;3.85;;;13.40;99.90;;;;;;5054335;28;20206;-69
2021/10/29 04:44:07;;;;;;;5.93;3.72;;;13.40;99.90;;;;;;5053266;28;20646;-69
2021/10/29 04:46:37;;;;;;;7.20;3.88;;;13.40;99.90;;;;;;5041166;28;20207;-70
2021/10/29 04:49:05;;;;;;;7.05;4.85;;;13.30;99.90;;;;;;5053425;28;20257;-72
2021/10/29 04:51:34;;;;;;;7.18;3.90;;;13.50;99.90;;;;;;5052382;28;20306;-69
2021/10/29 04:54:01;;;;;;;7.90;4.18;;;13.50;99.90;;;;;;5053435;28;20706;-69
2021/10/29 04:56:30;;;;;;;8.02;3.45;;;13.50;99.90;;;;;;5051001;28;20206;-69
2021/10/29 04:58:57;;;;;;;4.80;4.10;;;13.70;99.90;;;;;;5053649;28;20301;-68
2021/10/29 05:01:24;;;;;;;7.50;4.00;;;13.70;99.90;;;;;;5052979;28;20674;-69
2021/10/29 05:03:53;;;;;;;8.02;4.20;;;13.70;99.90;;;;;;5053568;28;20233;-68
2021/10/29 05:06:20;;;;;;;8.88;3.80;;;13.70;99.90;;;;;;5052999;28;20210;-69
2021/10/29 05:08:47;;;;;;;6.07;4.50;;;13.70;99.90;;;;;;5053030;28;20252;-72
2021/10/29 05:11:15;;;;;;;5.35;4.05;;;13.60;99.90;;;;;;5052830;28;20264;-69
2021/10/29 05:13:42;;;;;;;6.45;3.72;;;13.60;99.90;;;;;;5053301;28;20215;-72
2021/10/29 05:16:09;;;;;;;8.00;4.13;;;13.60;99.90;;;;;;5052967;28;20210;-71
2021/10/29 05:18:36;;;;;;;8.18;4.18;;;13.70;99.90;;;;;;5052932;28;20694;-72
2021/10/29 05:21:05;;;;;;;4.60;3.78;;;13.70;99.90;;;;;;5043582;28;20207;-69
2021/10/29 05:23:32;;;;;;;5.35;3.60;;;13.70;99.90;;;;;;5052866;28;20253;-70
2021/10/29 05:25:59;;;;;;;6.47;3.90;;;13.80;99.90;;;;;;5053090;28;20199;-70
2021/10/29 05:28:26;;;;;;;5.53;4.07;;;13.80;99.90;;;;;;5052686;28;20215;-69
2021/10/29 05:30:53;;;;;;;9.02;3.97;;;13.70;99.90;;;;;;5052782;28;20203;-69
2021/10/29 05:33:20;;;;;;;6.43;3.50;;;13.80;99.90;;;;;;5052359;28;20218;-69
2021/10/29 05:35:47;;;;;;;4.80;4.15;;;13.80;99.90;;;;;;5052739;28;20234;-69
2021/10/29 05:38:15;;;;;;;9.52;3.38;;;13.80;99.90;;;;;;5052129;28;20203;-69
2021/10/29 05:40:42;;;;;;;9.13;4.85;;;13.90;99.90;;;;;;5052651;28;20210;-69
2021/10/29 05:43:09;;;;;;;7.75;4.18;;;13.90;99.90;;;;;;5045951;28;20207;-69
2021/10/29 05:45:36;;;;;;;5.43;3.80;;;14.00;99.90;;;;;;5052704;28;20664;-70
2021/10/29 05:48:06;;;;;;;6.82;4.90;;;14.10;99.90;;;;;;5052358;28;20280;-71
2021/10/29 05:50:34;;;;;;;12.65;4.10;;;14.10;99.90;;;;;;5043687;28;20214;-69
2021/10/29 05:53:05;;;;;;;6.35;3.30;;;14.00;99.90;;;;;;5051985;28;20229;-72
2021/10/29 05:55:34;;;;;;;9.27;4.05;;;14.00;99.90;;;;;;5042649;28;20203;-72
2021/10/29 05:58:01;;;;;;;5.75;3.72;;;13.90;99.90;;;;;;5051894;28;20207;-71
2021/10/29 06:00:30;;;;;;;6.75;4.28;;;14.00;99.90;;;;;;5052072;28;20264;-73
2021/10/29 06:03:04;;;;;;;6.68;3.92;;;14.00;99.90;;;;;;5052603;28;20207;-70
2021/10/29 06:05:32;;;;;;;7.38;3.83;;;14.10;99.90;;;;;;5052072;28;20225;-69
2021/10/29 06:07:59;;;;;;;5.97;4.30;;;14.00;99.90;;;;;;5052069;28;20235;-70
2021/10/29 06:10:27;;;;;;;8.63;4.03;;;14.10;99.90;;;;;;5051836;28;20203;-68
2021/10/29 06:12:56;;;;;;;7.93;4.13;;;14.00;99.90;;;;;;5052334;28;20214;-70
2021/10/29 06:15:23;;;;;;;7.95;3.58;;;14.00;99.90;;;;;;5051662;28;20207;-71
2021/10/29 06:17:51;;;;;;;5.03;3.88;;;14.00;99.90;;;;;;5050976;28;20214;-70
2021/10/29 06:20:18;;;;;;;10.20;4.47;;;14.00;99.90;;;;;;5051308;28;20234;-70
2021/10/29 06:22:46;;;;;;;6.38;4.53;;;14.10;99.90;;;;;;5050188;28;20256;-68
2021/10/29 06:25:15;;;;;;;7.80;4.55;;;14.10;99.90;;;;;;5050748;28;20239;-68
2021/10/29 06:30:29;;;;;;;4.82;3.25;;;14.10;99.90;;;;;;5052017;28;20209;-69
2021/10/29 06:32:56;;;;;;;9.85;4.10;;;14.10;99.90;;;;;;5051974;28;20238;-69
2021/10/29 06:35:23;;;;;;;5.18;3.90;;;14.10;99.90;;;;;;5051246;28;20213;-69
2021/10/29 06:37:50;;;;;;;9.90;4.55;;;14.20;99.90;;;;;;5051750;28;20207;-70
2021/10/29 06:40:18;;;;;;;6.55;3.88;;;14.10;99.90;;;;;;5050177;28;20206;-69
2021/10/29 06:42:49;;;;;;;8.35;4.40;;;14.10;99.90;;;;;;5050961;28;20203;-69
2021/10/29 06:48:18;;;;;;;9.32;3.90;;;14.20;99.90;;;;;;5050661;28;20273;-69
2021/10/29 06:59:16;;;;;;;9.60;3.85;;;14.30;99.90;;;;;;5026145;28;20264;-68
2021/10/29 07:01:48;;;;;;;6.18;4.32;;;14.30;99.90;;;;;;5051286;28;20618;-69
2021/10/29 07:40:07;;;;;;;4.85;3.63;;;15.00;99.90;;;;;;5020975;28;20308;-69
2021/10/29 07:42:39;;;;;;;8.65;3.65;;;15.00;99.90;;;;;;5050463;28;20678;-70
2021/10/29 07:45:08;;;;;;;4.32;2.85;;;15.00;99.90;;;;;;5050175;28;20258;-70
2021/10/29 07:47:35;;;;;;;3.67;3.35;;;15.00;99.90;;;;;;5050487;28;20239;-68
2021/10/29 07:50:03;;;;;;;10.13;4.15;;;15.10;99.90;;;;;;5050230;28;20558;-67
2021/10/29 07:52:31;;;;;;;4.53;3.58;;;15.10;99.90;;;;;;5050429;28;20257;-68
2021/10/29 07:54:59;;;;;;;6.72;3.53;;;15.10;99.90;;;;;;5050555;28;20210;-68
2021/10/29 07:57:26;;;;;;;12.23;3.92;;;15.20;99.90;;;;;;5050644;28;20199;-71
2021/10/29 07:59:53;;;;;;;7.50;3.40;;;15.20;99.90;;;;;;5050773;28;20633;-68
2021/10/29 08:02:23;;;;;;;5.78;2.95;;;15.30;99.90;;;;;;5034405;28;20215;-68
2021/10/29 08:04:50;;;;;;;5.78;3.20;;;15.40;99.90;;;;;;5050250;28;20230;-68
2021/10/29 08:07:17;;;;;;;5.53;3.10;;;15.40;99.90;;;;;;5049733;28;20206;-68
2021/10/29 08:09:46;;;;;;;4.80;4.03;;;15.50;99.90;;;;;;5050286;28;20214;-68
2021/10/29 08:12:15;;;;;;;10.70;3.83;;;15.60;99.90;;;;;;5049977;28;20211;-67
2021/10/29 08:14:42;;;;;;;7.15;3.30;;;15.70;99.90;;;;;;5050459;28;20217;-68
2021/10/29 08:17:09;;;;;;;6.78;4.25;;;15.80;99.90;;;;;;5049496;28;20211;-69
2021/10/29 08:19:37;;;;;;;10.60;4.47;;;16.00;99.90;;;;;;5050439;28;20203;-68
2021/10/29 08:22:05;;;;;;;3.30;2.35;;;16.30;99.90;;;;;;5049178;28;20264;-67
2021/10/29 08:24:33;;;;;;;5.75;2.75;;;16.10;99.90;;;;;;5050174;28;20621;-68
2021/10/29 08:27:02;;;;;;;8.98;4.03;;;16.40;99.90;;;;;;5049716;28;20222;-67
2021/10/29 08:29:29;;;;;;;5.97;3.83;;;16.40;99.90;;;;;;5050236;28;20279;-68
2021/10/29 08:31:56;;;;;;;4.05;3.08;;;16.60;99.90;;;;;;5050240;28;20284;-70
2021/10/29 08:34:25;;;;;;;8.95;4.47;;;16.70;99.90;;;;;;5050150;28;20239;-68
2021/10/29 08:36:52;;;;;;;6.95;3.22;;;16.60;99.90;;;;;;5050766;28;20215;-67
2021/10/29 08:39:20;;;;;;;7.30;3.45;;;16.40;99.90;;;;;;5043702;28;20218;-67
2021/10/29 08:41:47;;;;;;;4.78;3.45;;;16.30;99.90;;;;;;5048642;28;20272;-68
2021/10/29 08:44:16;;;;;;;5.70;3.50;;;16.30;99.90;;;;;;5049024;28;20203;-68
2021/10/29 08:46:44;;;;;;;6.15;3.78;;;16.20;99.90;;;;;;5048742;28;20321;-67
2021/10/29 08:49:13;;;;;;;6.97;3.88;;;16.30;99.90;;;;;;5047972;28;20241;-68
2021/10/29 08:51:41;;;;;;;6.13;3.90;;;16.30;99.90;;;;;;5049215;28;20199;-68
2021/10/29 08:54:08;;;;;;;5.32;3.58;;;16.20;99.90;;;;;;5047980;28;20218;-68
2021/10/29 08:56:35;;;;;;;4.90;3.15;;;16.20;99.90;;;;;;5048706;28;20269;-68
2021/10/29 08:59:05;;;;;;;4.90;2.97;;;16.20;99.90;;;;;;5049440;28;20276;-68
2021/10/29 09:01:51;;;;;;;3.72;3.30;;;16.30;99.90;;;;;;5045948;28;20211;-71
2021/10/29 09:04:26;;;;;;;6.28;3.35;;;16.80;99.90;;;;;;5041307;28;20238;-68
2021/10/29 09:07:00;;;;;;;4.70;3.30;;;17.30;99.90;;;;;;5053203;28;20874;-69
2021/10/29 09:32:22;;;;;;;4.65;2.90;;;18.60;99.90;;;;;;5052236;28;20210;-69
2021/10/29 09:35:02;;;;;;;5.45;3.00;;;18.90;99.90;;;;;;5052857;28;20214;-68
2021/10/29 09:37:36;;;;;;;4.70;2.58;;;19.00;99.90;;;;;;5052813;28;20199;-71
2021/10/29 09:40:14;;;;;;;7.78;5.28;;;18.90;99.90;;;;;;5052458;28;20312;-67
2021/10/29 09:42:43;;;;;;;6.18;3.15;;;18.70;99.90;;;;;;5052523;28;20297;-67
2021/10/29 09:45:15;;;;;;;4.32;3.05;;;19.20;99.90;;;;;;5052043;28;20234;-67
2021/10/29 09:47:47;;;;;;;5.60;3.30;;;19.60;99.90;;;;;;5050676;28;20629;-67
2021/10/29 09:50:27;;;;;;;7.40;3.10;;;20.10;99.90;;;;;;5051645;28;20211;-67
2021/10/29 09:53:04;;;;;;;3.90;2.92;;;21.70;99.90;;;;;;5048806;28;20206;-67
2021/10/29 09:58:18;;;;;;;4.00;3.00;;;20.80;99.90;;;;;;5051474;28;20611;-67
2021/10/29 10:00:45;;;;;;;3.80;2.40;;;20.60;99.90;;;;;;5051485;28;20288;-67
2021/10/29 10:03:15;;;;;;;3.22;2.80;;;20.90;99.90;;;;;;5050447;28;20738;-67
2021/10/29 10:05:45;;;;;;;4.95;2.85;;;19.80;99.90;;;;;;5051665;28;20234;-67
2021/10/29 10:08:13;;;;;;;4.75;3.25;;;19.40;99.90;;;;;;5051672;28;20211;-70
2021/10/29 10:10:45;;;;;;;7.07;3.50;;;19.00;99.90;;;;;;5050754;28;20206;-71
2021/10/29 10:13:14;;;;;;;4.00;2.53;;;18.80;99.90;;;;;;5051395;28;20203;-72
2021/10/29 10:15:42;;;;;;;5.00;3.70;;;18.70;99.90;;;;;;5052035;28;20211;-72
2021/10/29 10:18:09;;;;;;;6.85;3.83;;;18.70;99.90;;;;;;5051688;28;20207;-71
2021/10/29 10:20:36;;;;;;;5.63;3.08;;;18.80;99.90;;;;;;5048105;28;20268;-71
2021/10/29 10:23:07;;;;;;;3.85;2.90;;;18.70;99.90;;;;;;5050341;28;20214;-69
2021/10/29 10:26:04;;;;;;;3.80;2.72;;;18.80;99.90;;;;;;5051558;28;20586;-71
2021/10/29 10:40:30;;;;;;;7.40;3.45;;;18.80;99.90;;;;;;4989570;28;20247;-71
2021/10/29 10:43:13;;;;;;;7.93;3.38;;;18.80;99.90;;;;;;5031902;28;20207;-70
2021/10/29 10:45:48;;;;;;;7.95;4.60;;;18.70;99.90;;;;;;5044126;28;20223;-71
2021/10/29 10:48:25;;;;;;;8.13;4.30;;;18.70;99.90;;;;;;5050774;28;20212;-68
2021/10/29 10:50:56;;;;;;;8.25;3.83;;;19.00;99.90;;;;;;5051986;28;20206;-66
2021/10/29 10:53:40;;;;;;;5.40;3.92;;;19.10;99.90;;;;;;5045561;28;20730;-66
2021/10/29 10:56:23;;;;;;;4.90;3.05;;;18.90;99.90;;;;;;5050493;28;20203;-67
2021/10/29 10:59:04;;;;;;;5.43;3.15;;;18.90;99.90;;;;;;5051399;28;20310;-67
2021/10/29 11:04:33;;;;;;;8.48;3.22;;;19.20;99.90;;;;;;5038670;28;20293;-66
2021/10/29 11:07:11;;;;;;;3.90;2.45;;;19.30;99.90;;;;;;5050801;28;20308;-66
2021/10/29 11:10:02;;;;;;;6.25;3.05;;;19.10;99.90;;;;;;5051222;28;20205;-66
2021/10/29 11:13:17;;;;;;;4.97;2.58;;;19.10;99.90;;;;;;5051135;28;20203;-67
2021/10/29 11:15:58;;;;;;;5.22;3.17;;;19.10;99.90;;;;;;5050884;28;20210;-67
2021/10/29 11:18:35;;;;;;;4.30;3.25;;;19.30;99.90;;;;;;5049532;28;20578;-67
2021/10/29 11:21:20;;;;;;;5.38;2.95;;;19.50;99.90;;;;;;5050117;28;20573;-67
2021/10/29 11:24:00;;;;;;;6.05;2.85;;;19.50;99.90;;;;;;5049695;28;20249;-67
2021/10/29 11:26:32;;;;;;;4.15;2.20;;;19.50;99.90;;;;;;5038400;28;20219;-68
2021/10/29 11:29:04;;;;;;;5.45;2.67;;;19.60;99.90;;;;;;5049990;28;20678;-66
2021/10/29 11:31:34;;;;;;;4.10;2.33;;;19.90;99.90;;;;;;5050700;28;20234;-68
2021/10/29 11:34:03;;;;;;;4.65;2.53;;;19.90;99.90;;;;;;5050267;28;20256;-67
2021/10/29 11:36:33;;;;;;;4.72;2.38;;;20.00;99.90;;;;;;5050751;28;20563;-67
2021/10/29 11:39:02;;;;;;;3.72;2.80;;;20.00;99.90;;;;;;5049211;28;20677;-68
2021/10/29 11:41:32;;;;;;;2.67;2.20;;;20.10;99.90;;;;;;5037215;28;20199;-68
2021/10/29 11:44:01;;;;;;;2.92;2.28;;;20.10;99.90;;;;;;5049061;28;20213;-67
2021/10/29 11:46:30;;;;;;;2.83;2.42;;;20.10;99.90;;;;;;5049976;28;20317;-68
2021/10/29 11:49:01;;;;;;;3.38;2.35;;;20.20;99.90;;;;;;5050806;28;20233;-68
2021/10/29 11:51:29;;;;;;;3.42;2.35;;;20.20;99.90;;;;;;5050373;28;20207;-67
2021/10/29 11:54:01;;;;;;;5.53;2.60;;;20.20;99.90;;;;;;5050115;28;20257;-70
2021/10/29 11:56:34;;;;;;;5.05;2.58;;;20.20;99.90;;;;;;5049995;28;20203;-69
2021/10/29 11:59:29;;;;;;;2.97;2.03;;;20.20;99.90;;;;;;5036569;28;20215;-67
2021/10/29 12:05:48;;;;;;;3.47;2.15;;;20.40;99.90;;;;;;5049928;28;20504;-66
2021/10/29 12:07:39;;;;;;;5.55;2.72;;;20.30;99.90;;;;;;5037949;28;20732;-68
2021/10/29 12:10:11;;;;;;;3.05;2.33;;;20.40;99.90;;;;;;5049890;28;20209;-69
2021/10/29 12:12:40;;;;;;;3.63;2.63;;;20.40;99.90;;;;;;5037398;28;20209;-68
2021/10/29 12:15:10;;;;;;;3.85;2.50;;;20.40;99.90;;;;;;5049945;28;20411;-67
2021/10/29 12:17:47;;;;;;;3.35;2.60;;;20.50;99.90;;;;;;5050476;28;20210;-69
2021/10/29 12:20:20;;;;;;;5.13;2.72;;;20.60;99.90;;;;;;5050111;28;20199;-68
2021/10/29 12:22:49;;;;;;;5.07;2.92;;;20.80;99.90;;;;;;5050054;28;20214;-68
2021/10/29 12:25:23;;;;;;;5.40;3.15;;;20.90;99.90;;;;;;5049855;28;20301;-70
2021/10/29 12:27:56;;;;;;;4.55;3.05;;;20.70;99.90;;;;;;5050007;28;20323;-70
2021/10/29 12:30:32;;;;;;;3.65;2.10;;;20.70;99.90;;;;;;5050084;28;20605;-69
2021/10/29 12:33:21;;;;;;;4.55;2.80;;;20.70;99.90;;;;;;5049748;28;20737;-66
2021/10/29 12:53:09;;;;;;;4.25;2.42;;;20.80;99.90;;;;;;5053492;28;20214;-72
2021/10/29 13:01:29;;;;;;;4.18;2.65;;;20.80;99.90;;;;;;5053441;28;20281;-67
2021/10/29 13:03:58;;;;;;;3.22;2.42;;;20.80;99.90;;;;;;5052647;28;20210;-68
2021/10/29 13:06:33;;;;;;;3.03;2.40;;;20.70;99.90;;;;;;5049492;28;20244;-68
2021/10/29 13:09:11;;;;;;;7.18;2.50;;;20.70;99.90;;;;;;5051546;28;20201;-68
2021/10/29 13:11:42;;;;;;;5.90;2.55;;;20.50;99.90;;;;;;5052517;28;20238;-67
2021/10/29 13:14:11;;;;;;;5.03;2.45;;;20.50;99.90;;;;;;5053017;28;20282;-68
2021/10/29 13:16:38;;;;;;;2.83;2.20;;;20.40;99.90;;;;;;5048355;28;20213;-67
2021/10/29 13:19:26;;;;;;;2.67;2.40;;;20.30;99.90;;;;;;5052694;28;20202;-68
2021/10/29 13:25:09;;;;;;;2.53;2.33;;;20.30;99.90;;;;;;5046557;28;20201;-72
2021/10/29 13:27:58;;;;;;;4.28;2.92;;;20.30;99.90;;;;;;5050386;28;20317;-73
2021/10/29 13:36:11;;;;;;;2.90;2.33;;;20.10;99.90;;;;;;5044101;28;20594;-72
2021/10/29 13:52:36;;;;;;;3.63;2.33;;;20.00;99.90;;;;;;5044398;28;20206;-72
2021/10/29 13:55:15;;;;;;;3.85;2.75;;;20.00;99.90;;;;;;5051872;28;20206;-69
2021/10/29 14:03:44;;;;;;;3.35;2.42;;;20.00;99.90;;;;;;5052051;28;20219;-72
2021/10/29 14:28:28;;;;;;;4.25;3.10;;;19.40;99.90;;;;;;5051343;28;20320;-71
2021/10/29 14:31:03;;;;;;;4.32;2.75;;;19.40;99.90;;;;;;5047350;28;20206;-72
2021/10/29 14:33:34;;;;;;;4.50;2.35;;;19.40;99.90;;;;;;5044323;28;20198;-71
2021/10/29 14:36:02;;;;;;;5.53;2.95;;;19.40;99.90;;;;;;5050504;28;20245;-71
2021/10/29 14:38:39;;;;;;;7.22;4.32;;;19.40;99.90;;;;;;5050923;28;20203;-72
2021/10/29 14:41:12;;;;;;;3.05;2.40;;;19.40;99.90;;;;;;5050727;28;20584;-71
2021/10/29 14:43:42;;;;;;;6.18;3.28;;;19.40;99.90;;;;;;5051329;28;20206;-72
2021/10/29 14:46:20;;;;;;;4.32;2.97;;;19.30;99.90;;;;;;5050686;28;20232;-71
2021/10/29 14:48:54;;;;;;;3.95;2.72;;;19.40;99.90;;;;;;5051336;28;20211;-71
2021/10/29 15:02:45;;;;;;;5.75;2.92;;;19.20;99.90;;;;;;5050204;28;20290;-71
2021/10/29 15:05:32;;;;;;;2.95;2.50;;;19.20;99.90;;;;;;5050270;28;20199;-71
2021/10/29 15:24:56;;;;;;;5.57;3.25;;;19.00;99.90;;;;;;5040448;28;20336;-68
2021/10/29 15:27:31;;;;;;;4.90;2.92;;;19.00;99.90;;;;;;5047180;28;20230;-68
2021/10/29 15:30:01;;;;;;;7.72;2.60;;;19.00;99.90;;;;;;5046627;28;20206;-69
2021/10/29 15:46:32;;;;;;;4.80;2.53;;;18.80;99.90;;;;;;5006342;28;20667;-69
2021/10/29 15:49:03;;;;;;;2.75;2.47;;;18.80;99.90;;;;;;5031563;28;20234;-68
2021/10/29 15:51:38;;;;;;;2.90;2.53;;;18.70;99.90;;;;;;5050244;28;20206;-68
2021/10/29 15:54:08;;;;;;;7.57;3.30;;;18.60;99.90;;;;;;5050029;28;20198;-68
2021/10/29 15:56:40;;;;;;;3.67;3.28;;;18.60;99.90;;;;;;5046735;28;20218;-69
2021/10/29 15:59:17;;;;;;;9.65;4.85;;;18.60;99.90;;;;;;5049298;28;20670;-68
2021/10/29 16:01:48;;;;;;;7.32;3.33;;;18.60;99.90;;;;;;5049892;28;20211;-69
2021/10/29 16:18:11;;;;;;;6.40;3.00;;;18.60;99.90;;;;;;4985090;28;20593;-70
2021/10/29 16:20:38;;;;;;;5.32;2.88;;;18.60;99.90;;;;;;5026492;28;20653;-67
2021/10/29 16:23:07;;;;;;;6.28;4.05;;;18.50;99.90;;;;;;5049089;28;20211;-69
2021/10/29 16:25:35;;;;;;;3.03;2.70;;;18.50;99.90;;;;;;5048153;28;20235;-67
2021/10/29 16:28:04;;;;;;;10.27;3.17;;;18.40;99.90;;;;;;5049711;28;20265;-68
2021/10/29 16:30:33;;;;;;;9.52;3.47;;;18.30;99.90;;;;;;5048040;28;20249;-68
2021/10/29 16:33:23;;;;;;;7.28;4.10;;;18.30;99.90;;;;;;5049008;28;20203;-68
2021/10/29 16:35:51;;;;;;;5.75;3.20;;;18.30;99.90;;;;;;5045553;28;20198;-68
2021/10/29 16:38:20;;;;;;;8.43;5.03;;;18.20;99.90;;;;;;5049362;28;20260;-68
2021/10/29 16:40:47;;;;;;;5.43;3.20;;;18.20;99.90;;;;;;5049976;28;20210;-67
2021/10/29 16:43:14;;;;;;;8.05;3.97;;;18.20;99.90;;;;;;5049451;28;20686;-68